Time;durP1;ratioP1;P1;durP2;ratioP2;P2;SDS_P1;SDS_P2;PMS_P1;PMS_P2;Temp;Humidity;BMP_temperature;BMP_pressure;BME280_temperature;BME280_humidity;BME280_pressure;Samples;Min_cycle;Max_cycle;Signal;HPM_P1;HPM_P2
2022/01/22 00:02:39;;;;;;;2.63;0.90;;;14.80;50.80;13.80;102595.00;;;;5051194;28;20043;-69
2022/01/22 00:05:25;;;;;;;2.47;0.70;;;14.80;50.90;13.80;102602.00;;;;5047256;28;20049;-69
2022/01/22 00:08:11;;;;;;;2.65;0.85;;;14.80;50.80;13.90;102609.00;;;;5045083;28;20093;-69
2022/01/22 00:10:57;;;;;;;1.88;0.60;;;14.80;50.90;13.90;102607.00;;;;5065144;28;20036;-69
2022/01/22 00:16:59;;;;;;;1.77;0.60;;;14.80;50.90;13.90;102595.00;;;;5049005;28;20052;-69
2022/01/22 00:19:45;;;;;;;1.15;0.50;;;14.80;50.90;13.80;102597.00;;;;5050831;28;20041;-69
2022/01/22 00:22:34;;;;;;;1.95;0.60;;;14.80;50.90;13.90;102598.00;;;;5063104;28;20040;-69
2022/01/22 00:25:21;;;;;;;0.98;0.50;;;14.80;50.90;13.80;102585.00;;;;5059832;28;20127;-70
2022/01/22 00:28:07;;;;;;;1.37;0.63;;;14.80;50.90;13.80;102596.00;;;;5065661;28;20509;-70
2022/01/22 00:30:53;;;;;;;1.00;0.60;;;14.80;50.90;13.90;102593.00;;;;5060045;28;20044;-69
2022/01/22 00:33:39;;;;;;;1.67;0.65;;;14.80;50.90;13.90;102595.00;;;;5061141;28;20509;-69
2022/01/22 00:36:25;;;;;;;1.00;0.57;;;14.80;50.90;13.90;102586.00;;;;5065070;28;20049;-69
2022/01/22 00:39:11;;;;;;;2.55;0.77;;;14.80;50.90;13.90;102589.00;;;;5064769;28;20032;-69
2022/01/22 00:41:57;;;;;;;1.48;0.50;;;14.80;51.00;13.80;102581.00;;;;5060226;28;20040;-69
2022/01/22 00:44:43;;;;;;;1.05;0.60;;;14.80;51.00;13.90;102578.00;;;;5064214;28;20041;-69
2022/01/22 00:47:29;;;;;;;2.50;0.60;;;14.80;51.00;13.90;102566.00;;;;5050653;28;20492;-69
2022/01/22 00:50:17;;;;;;;4.10;0.80;;;14.80;51.00;13.90;102569.00;;;;5056083;28;20045;-69
2022/01/22 00:53:03;;;;;;;;;;;14.80;51.00;13.90;102571.00;;;;5051082;28;20040;-69
2022/01/22 00:55:50;;;;;;;3.78;0.55;;;14.80;50.80;13.90;102580.00;;;;5054764;28;19912;-69
2022/01/22 00:58:36;;;;;;;1.77;0.60;;;14.80;50.90;13.90;102580.00;;;;5052133;28;20040;-69
2022/01/22 01:01:22;;;;;;;1.27;0.50;;;14.80;50.90;13.90;102566.00;;;;5067810;28;20041;-69
2022/01/22 01:04:10;;;;;;;1.85;0.65;;;14.80;50.90;13.90;102567.00;;;;5067586;28;20084;-69
2022/01/22 01:06:56;;;;;;;1.88;0.57;;;14.80;50.90;13.90;102571.00;;;;5052793;28;20500;-69
2022/01/22 01:09:42;;;;;;;1.33;0.50;;;14.80;51.00;13.90;102573.00;;;;5068314;28;20474;-69
2022/01/22 01:12:28;;;;;;;2.33;0.60;;;14.80;50.90;13.90;102581.00;;;;5068425;28;20067;-69
2022/01/22 01:15:36;;;;;;;1.80;0.50;;;14.80;51.00;13.90;102579.00;;;;5063741;28;20111;-69
2022/01/22 01:33:54;;;;;;;3.60;0.88;;;14.90;51.00;13.90;102584.00;;;;5056344;28;20037;-69
2022/01/22 01:36:41;;;;;;;1.25;0.43;;;14.80;51.00;13.90;102576.00;;;;5059283;28;20049;-69
2022/01/22 01:39:32;;;;;;;2.50;0.52;;;14.90;51.00;13.90;102587.00;;;;5065999;28;20044;-69
2022/01/22 01:42:34;;;;;;;1.83;0.60;;;14.90;51.00;13.90;102585.00;;;;5066987;28;20139;-69
2022/01/22 01:45:20;;;;;;;3.22;0.82;;;14.90;51.00;13.90;102586.00;;;;5054437;28;20460;-69
2022/01/22 01:48:12;;;;;;;2.53;0.50;;;14.90;51.40;13.90;102579.00;;;;5049011;28;20037;-69
2022/01/22 01:50:59;;;;;;;1.95;0.40;;;14.90;51.00;13.90;102581.00;;;;5070098;28;20119;-69
2022/01/22 01:53:59;;;;;;;1.45;0.70;;;14.90;51.00;13.90;102581.00;;;;5061957;28;20072;-69
2022/01/22 01:59:51;;;;;;;1.27;0.50;;;14.90;51.00;13.90;102591.00;;;;5057038;28;20036;-69
2022/01/22 02:02:38;;;;;;;2.37;0.90;;;14.90;51.00;13.90;102595.00;;;;5065282;28;20036;-69
2022/01/22 02:05:25;;;;;;;1.48;0.52;;;14.90;51.00;13.90;102584.00;;;;5062169;28;20055;-69
2022/01/22 02:08:13;;;;;;;1.05;0.40;;;14.90;51.00;14.00;102590.00;;;;5068067;28;20036;-69
2022/01/22 02:11:01;;;;;;;;;;;14.90;51.00;13.90;102588.00;;;;5048604;28;20037;-69
2022/01/22 02:14:03;;;;;;;1.80;0.38;;;14.90;50.90;14.00;102595.00;;;;5060393;28;19912;-69
2022/01/22 02:26:04;;;;;;;2.20;0.60;;;14.90;51.00;14.00;102598.00;;;;5063548;28;20043;-69
2022/01/22 02:28:52;;;;;;;2.22;0.40;;;14.90;51.00;13.90;102589.00;;;;5049028;28;20044;-69
2022/01/22 02:32:00;;;;;;;0.68;0.40;;;14.90;51.00;14.00;102591.00;;;;5063934;28;20043;-69
2022/01/22 02:34:58;;;;;;;1.58;0.50;;;14.90;51.00;14.00;102601.00;;;;5059383;28;20375;-69
2022/01/22 02:37:51;;;;;;;2.03;0.43;;;14.90;51.00;13.90;102597.00;;;;5065322;28;20063;-69
2022/01/22 02:40:48;;;;;;;2.85;0.63;;;14.90;51.00;14.00;102595.00;;;;5062227;28;20579;-69
2022/01/22 02:43:34;;;;;;;1.98;0.52;;;14.90;51.00;14.00;102594.00;;;;5061953;28;20045;-69
2022/01/22 02:46:24;;;;;;;2.60;0.50;;;14.90;51.00;14.00;102600.00;;;;5063523;28;20481;-69
2022/01/22 02:49:10;;;;;;;2.42;0.70;;;14.90;51.00;14.00;102599.00;;;;5068582;28;20049;-69
2022/01/22 02:52:07;;;;;;;3.05;0.60;;;14.90;51.10;14.00;102603.00;;;;5062265;28;20047;-69
2022/01/22 02:54:55;;;;;;;1.45;0.43;;;14.90;51.10;14.00;102600.00;;;;5063884;28;20044;-69
2022/01/22 02:57:43;;;;;;;0.95;0.40;;;15.00;51.20;14.00;102607.00;;;;5064786;28;20041;-69
2022/01/22 03:00:30;;;;;;;1.40;0.55;;;15.00;51.10;14.00;102608.00;;;;5062216;28;20041;-69
2022/01/22 03:03:17;;;;;;;1.60;0.38;;;15.00;51.10;14.00;102613.00;;;;5047717;28;20040;-69
2022/01/22 03:06:03;;;;;;;1.65;0.50;;;15.00;51.10;14.00;102606.00;;;;5062790;28;20361;-69
2022/01/22 03:08:49;;;;;;;2.15;0.55;;;15.00;51.10;14.00;102616.00;;;;5064815;28;20056;-69
2022/01/22 03:11:44;;;;;;;2.85;0.45;;;15.00;51.10;14.00;102611.00;;;;5061670;28;20524;-69
2022/01/22 03:29:51;;;;;;;3.80;0.68;;;15.00;51.10;14.00;102595.00;;;;5063811;28;20045;-70
2022/01/22 03:32:42;;;;;;;3.85;1.02;;;15.00;51.10;14.00;102603.00;;;;5047444;28;20058;-69
2022/01/22 03:35:34;;;;;;;2.63;0.50;;;15.00;51.10;14.00;102600.00;;;;5060950;28;20044;-69
2022/01/22 03:38:20;;;;;;;3.92;0.60;;;15.00;51.10;14.00;102596.00;;;;5066048;28;20051;-69
2022/01/22 03:41:07;;;;;;;3.55;0.70;;;15.00;51.10;14.00;102604.00;;;;5045448;28;20044;-69
2022/01/22 03:43:53;;;;;;;2.92;0.68;;;15.00;51.90;14.00;102607.00;;;;5067563;28;20464;-69
2022/01/22 03:46:41;;;;;;;3.00;0.77;;;15.00;51.20;14.00;102612.00;;;;5064008;28;20048;-69
2022/01/22 03:49:27;;;;;;;1.05;0.57;;;15.00;51.20;14.00;102607.00;;;;5060559;28;20140;-69
2022/01/22 03:52:13;;;;;;;4.35;0.90;;;15.00;51.20;14.00;102608.00;;;;5063335;28;20036;-69
2022/01/22 03:54:59;;;;;;;2.05;0.98;;;15.00;51.20;14.10;102617.00;;;;5049427;28;20041;-69
2022/01/22 03:57:45;;;;;;;3.58;1.00;;;15.00;51.30;14.10;102613.00;;;;5049141;28;20044;-69
2022/01/22 04:00:31;;;;;;;4.28;0.68;;;15.00;51.20;14.10;102620.00;;;;5061738;28;20045;-69
2022/01/22 04:09:19;;;;;;;3.53;1.08;;;15.00;51.30;14.10;102620.00;;;;5063533;28;20064;-69
2022/01/22 04:12:05;;;;;;;5.18;0.90;;;15.00;51.30;14.10;102627.00;;;;5063484;28;20098;-69
2022/01/22 04:15:00;;;;;;;3.47;0.88;;;15.00;51.30;14.10;102630.00;;;;5063418;28;20163;-69
2022/01/22 04:29:39;;;;;;;2.05;0.77;;;15.00;51.50;14.10;102645.00;;;;5069304;28;20041;-69
2022/01/22 04:32:30;;;;;;;2.08;0.70;;;15.10;51.50;14.10;102631.00;;;;5069463;28;20124;-69
2022/01/22 04:35:19;;;;;;;4.20;0.90;;;15.10;51.60;14.10;102642.00;;;;5045125;28;20041;-69
2022/01/22 04:38:05;;;;;;;3.53;1.02;;;15.10;51.50;14.20;102635.00;;;;5051228;28;20543;-69
2022/01/22 04:40:52;;;;;;;3.25;0.93;;;15.10;51.50;14.20;102641.00;;;;5064079;28;20037;-69
2022/01/22 04:43:40;;;;;;;1.83;0.90;;;15.10;51.50;14.20;102638.00;;;;5051058;28;20040;-69
2022/01/22 04:47:17;;;;;;;2.92;1.10;;;15.10;51.50;14.20;102632.00;;;;5064116;28;20049;-69
2022/01/22 04:52:41;;;;;;;2.33;0.80;;;15.10;51.50;14.20;102629.00;;;;5066821;28;20079;-69
2022/01/22 04:55:27;;;;;;;2.53;0.80;;;15.10;51.40;14.20;102628.00;;;;5067730;28;20056;-69
2022/01/22 04:58:13;;;;;;;2.88;0.88;;;15.20;51.50;14.20;102635.00;;;;5067024;28;20048;-69
2022/01/22 05:00:59;;;;;;;2.65;0.90;;;15.20;51.50;14.20;102649.00;;;;5052671;28;20056;-69
2022/01/22 05:03:45;;;;;;;4.95;0.80;;;15.20;51.40;14.20;102646.00;;;;5066020;28;20036;-70
2022/01/22 05:06:31;;;;;;;2.75;0.50;;;15.20;51.40;14.20;102644.00;;;;5067472;28;20503;-69
2022/01/22 05:09:18;;;;;;;2.22;0.63;;;15.20;51.40;14.30;102646.00;;;;5063788;28;20047;-69
2022/01/22 05:12:05;;;;;;;3.58;0.60;;;15.20;51.40;14.30;102646.00;;;;5069115;28;20051;-69
2022/01/22 05:14:51;;;;;;;1.10;0.52;;;15.20;51.40;14.20;102645.00;;;;5067631;28;20391;-69
2022/01/22 05:17:40;;;;;;;2.40;0.50;;;15.20;51.40;14.30;102641.00;;;;5067311;28;20040;-69
2022/01/22 05:20:31;;;;;;;2.72;0.85;;;15.20;51.30;14.30;102640.00;;;;5053535;28;20040;-69
2022/01/22 05:23:22;;;;;;;2.28;0.70;;;15.20;51.30;14.20;102641.00;;;;5064588;28;20223;-69
2022/01/22 05:26:24;;;;;;;1.98;0.50;;;15.20;51.30;14.30;102652.00;;;;5059484;28;20122;-69
2022/01/22 05:38:20;;;;;;;2.13;0.70;;;15.20;51.30;14.20;102657.00;;;;5067582;28;20047;-69
2022/01/22 05:41:06;;;;;;;1.95;0.43;;;15.20;51.30;14.30;102659.00;;;;5048958;28;20044;-69
2022/01/22 05:43:52;;;;;;;1.65;0.57;;;15.20;51.20;14.20;102667.00;;;;5070489;28;20045;-69
2022/01/22 05:46:38;;;;;;;1.10;0.40;;;15.20;51.30;14.30;102668.00;;;;5060045;28;20041;-69
2022/01/22 05:49:26;;;;;;;0.70;0.43;;;15.30;51.30;14.30;102667.00;;;;5061200;28;20048;-71
2022/01/22 05:52:15;;;;;;;0.80;0.50;;;15.20;51.30;14.30;102668.00;;;;5068876;28;20056;-69
2022/01/22 06:00:52;;;;;;;2.13;0.57;;;15.20;51.30;14.30;102679.00;;;;5066992;28;20497;-69
2022/01/22 06:03:39;;;;;;;1.30;0.45;;;15.30;51.30;14.30;102691.00;;;;5045616;28;20383;-69
2022/01/22 06:06:25;;;;;;;1.27;0.43;;;15.20;51.30;14.30;102684.00;;;;5065230;28;20037;-69
2022/01/22 06:09:11;;;;;;;1.38;0.40;;;15.30;51.30;14.30;102691.00;;;;5072132;28;20048;-69
2022/01/22 06:12:04;;;;;;;1.65;0.47;;;15.30;51.30;14.30;102680.00;;;;5059174;28;20055;-69
2022/01/22 06:15:03;;;;;;;3.40;0.88;;;15.30;51.40;14.30;102688.00;;;;5049310;28;20090;-69
2022/01/22 06:17:49;;;;;;;1.35;0.65;;;15.30;51.30;14.30;102693.00;;;;5053208;28;20045;-69
2022/01/22 06:20:35;;;;;;;0.60;0.30;;;15.30;51.40;14.30;102691.00;;;;5068147;28;20056;-69
2022/01/22 06:23:21;;;;;;;1.90;0.50;;;15.30;51.40;14.30;102689.00;;;;5048887;28;20115;-69
2022/01/22 06:26:07;;;;;;;1.50;0.80;;;15.20;51.30;14.30;102693.00;;;;5063451;28;20040;-69
2022/01/22 06:28:53;;;;;;;1.48;0.60;;;15.30;51.40;14.30;102695.00;;;;5054893;28;20041;-69
2022/01/22 06:31:40;;;;;;;0.40;0.30;;;15.30;51.30;14.30;102697.00;;;;5047205;28;20037;-70
2022/01/22 06:34:26;;;;;;;1.45;0.50;;;15.30;51.40;14.30;102705.00;;;;5067189;28;20047;-69
2022/01/22 06:37:12;;;;;;;2.17;0.68;;;15.30;51.30;14.30;102707.00;;;;5060104;28;20409;-69
2022/01/22 06:42:53;;;;;;;1.05;0.52;;;15.30;51.30;14.30;102705.00;;;;5062957;28;20041;-69
2022/01/22 06:45:40;;;;;;;1.35;0.60;;;15.30;51.30;14.30;102716.00;;;;5046876;28;20071;-69
2022/01/22 06:48:27;;;;;;;1.40;0.60;;;15.30;51.40;14.30;102713.00;;;;5062648;28;20399;-69
2022/01/22 06:51:13;;;;;;;1.95;0.50;;;15.30;51.30;14.30;102711.00;;;;5050611;28;20095;-69
2022/01/22 06:54:00;;;;;;;3.05;0.80;;;15.30;51.30;14.30;102718.00;;;;5062342;28;20048;-69
2022/01/22 06:56:46;;;;;;;1.05;0.90;;;15.30;51.40;14.30;102721.00;;;;5063884;28;20393;-69
2022/01/22 06:59:32;;;;;;;1.08;0.60;;;15.30;51.30;14.30;102717.00;;;;5063734;28;20041;-69
2022/01/22 07:02:19;;;;;;;1.52;0.60;;;15.30;51.30;14.30;102711.00;;;;5063725;28;20389;-69
2022/01/22 07:05:05;;;;;;;1.20;0.67;;;15.30;51.30;14.30;102721.00;;;;5062690;28;20040;-69
2022/01/22 07:07:51;;;;;;;1.88;0.57;;;15.30;51.40;14.30;102711.00;;;;5067594;28;20045;-69
2022/01/22 07:10:38;;;;;;;1.70;0.70;;;15.30;51.30;14.30;102720.00;;;;5063628;28;20497;-69
2022/01/22 07:13:24;;;;;;;2.40;0.75;;;15.30;51.40;14.30;102716.00;;;;5060608;28;20390;-70
2022/01/22 07:16:10;;;;;;;1.45;0.50;;;15.30;51.30;14.30;102720.00;;;;5060846;28;20106;-70
2022/01/22 07:19:00;;;;;;;1.48;0.63;;;15.30;51.30;14.30;102726.00;;;;5063936;28;20040;-69
2022/01/22 07:21:55;;;;;;;2.20;0.80;;;15.30;51.30;14.30;102730.00;;;;5061343;28;20070;-69
2022/01/22 07:24:41;;;;;;;0.43;0.43;;;15.30;51.40;14.30;102731.00;;;;5053745;28;20071;-69
2022/01/22 07:27:27;;;;;;;1.60;1.13;;;15.30;51.30;14.30;102721.00;;;;5065179;28;20563;-69
2022/01/22 07:30:13;;;;;;;1.60;0.75;;;15.30;51.30;14.30;102741.00;;;;5062212;28;20531;-69
2022/01/22 07:33:00;;;;;;;2.40;0.90;;;15.30;51.40;14.30;102728.00;;;;5067429;28;20119;-70
2022/01/22 07:35:49;;;;;;;1.35;0.80;;;15.30;51.40;14.30;102741.00;;;;5063924;28;20378;-69
2022/01/22 07:38:38;;;;;;;1.17;0.75;;;15.20;51.40;14.30;102742.00;;;;5048368;28;20218;-69
2022/01/22 07:41:24;;;;;;;1.63;0.80;;;15.30;51.40;14.30;102746.00;;;;5061656;28;20120;-69
2022/01/22 07:44:10;;;;;;;2.05;0.95;;;15.30;51.50;14.30;102749.00;;;;5067629;28;20050;-69
2022/01/22 07:46:56;;;;;;;1.63;0.50;;;15.20;51.40;14.30;102742.00;;;;5047580;28;20486;-69
2022/01/22 07:49:42;;;;;;;1.63;0.82;;;15.20;51.40;14.30;102743.00;;;;5065264;28;20051;-69
2022/01/22 07:52:28;;;;;;;1.20;0.90;;;15.30;51.50;14.30;102753.00;;;;5068278;28;20083;-69
2022/01/22 07:55:16;;;;;;;0.55;0.55;;;15.20;51.60;14.30;102758.00;;;;5057087;28;20041;-69
2022/01/22 07:58:02;;;;;;;2.50;1.20;;;15.30;51.60;14.30;102760.00;;;;5048614;28;20049;-69
2022/01/22 08:00:48;;;;;;;1.23;0.95;;;15.30;51.60;14.30;102758.00;;;;5051244;28;20131;-70
2022/01/22 08:03:34;;;;;;;1.38;0.80;;;15.30;51.60;14.30;102738.00;;;;5063620;28;20451;-69
2022/01/22 08:06:20;;;;;;;1.60;0.70;;;15.30;51.60;14.30;102748.00;;;;5062606;28;20517;-70
2022/01/22 08:09:06;;;;;;;1.63;0.80;;;15.30;51.60;14.30;102745.00;;;;5065530;28;20076;-69
2022/01/22 08:11:52;;;;;;;1.23;1.02;;;15.30;51.50;14.30;102746.00;;;;5062543;28;20029;-69
2022/01/22 08:14:38;;;;;;;2.00;0.77;;;15.20;51.50;14.30;102750.00;;;;5066049;28;20059;-69
2022/01/22 08:17:25;;;;;;;0.65;0.60;;;15.30;51.50;14.30;102749.00;;;;5065865;28;20045;-69
2022/01/22 08:20:16;;;;;;;1.83;0.77;;;15.20;51.50;14.30;102748.00;;;;5059095;28;20044;-69
2022/01/22 08:23:02;;;;;;;1.00;0.68;;;15.30;51.50;14.30;102756.00;;;;5051709;28;20087;-69
2022/01/22 08:25:48;;;;;;;0.90;0.75;;;15.30;51.50;14.30;102754.00;;;;5064600;28;20374;-69
2022/01/22 08:28:53;;;;;;;1.05;0.70;;;15.30;51.50;14.30;102758.00;;;;5063909;28;20045;-69
2022/01/22 08:31:49;;;;;;;2.65;0.63;;;15.20;51.50;14.30;102761.00;;;;5058104;28;20390;-75
2022/01/22 08:37:49;;;;;;;0.70;0.60;;;15.30;51.50;14.30;102762.00;;;;5067299;28;20072;-70
2022/01/22 08:40:35;;;;;;;2.22;0.70;;;15.30;51.50;14.30;102763.00;;;;5062972;28;20056;-70
2022/01/22 08:43:22;;;;;;;1.17;0.60;;;15.20;51.50;14.30;102769.00;;;;5072727;28;20489;-71
2022/01/22 08:46:08;;;;;;;0.57;0.50;;;15.20;51.50;14.30;102769.00;;;;5059789;28;20048;-71
2022/01/22 08:48:55;;;;;;;0.63;0.52;;;15.30;51.60;14.30;102778.00;;;;5063478;28;20278;-70
2022/01/22 08:51:41;;;;;;;0.68;0.50;;;15.20;51.60;14.30;102775.00;;;;5069757;28;20041;-71
2022/01/22 08:54:27;;;;;;;1.45;0.50;;;15.20;51.60;14.30;102774.00;;;;5063236;28;20040;-72
2022/01/22 08:57:13;;;;;;;0.55;0.55;;;15.20;51.60;14.30;102784.00;;;;5058390;28;20052;-71
2022/01/22 08:59:59;;;;;;;0.77;0.68;;;15.20;51.60;14.30;102782.00;;;;5060781;28;20055;-71
2022/01/22 09:02:48;;;;;;;1.63;0.65;;;15.20;51.60;14.30;102783.00;;;;5070295;28;20041;-71
2022/01/22 09:05:36;;;;;;;1.08;0.50;;;15.20;51.60;14.30;102787.00;;;;5047596;28;20115;-71
2022/01/22 09:08:24;;;;;;;;;;;15.20;51.60;14.30;102791.00;;;;5080281;28;20550;-71
2022/01/22 09:11:10;;;;;;;0.70;0.40;;;15.20;51.50;14.30;102787.00;;;;5067365;28;19951;-71
2022/01/22 09:13:56;;;;;;;0.88;0.43;;;15.30;51.50;14.30;102786.00;;;;5065972;28;20041;-71
2022/01/22 09:16:42;;;;;;;1.05;0.50;;;15.30;51.60;14.30;102786.00;;;;5067255;28;20055;-71
2022/01/22 09:19:33;;;;;;;1.10;0.50;;;15.20;51.60;14.30;102794.00;;;;5053545;28;20036;-71
2022/01/22 09:22:34;;;;;;;0.80;0.50;;;15.20;51.60;14.30;102784.00;;;;5060659;28;20466;-71
2022/01/22 09:25:20;;;;;;;0.52;0.32;;;15.20;51.70;14.30;102787.00;;;;5067000;28;20037;-71
2022/01/22 09:28:13;;;;;;;1.65;0.47;;;15.20;51.70;14.30;102789.00;;;;5058123;28;20044;-71
2022/01/22 09:30:59;;;;;;;0.50;0.40;;;15.20;51.70;14.30;102786.00;;;;5060135;28;20072;-71
2022/01/22 09:33:45;;;;;;;0.43;0.40;;;15.20;51.70;14.30;102794.00;;;;5071167;28;20037;-71
2022/01/22 09:36:31;;;;;;;0.65;0.50;;;15.30;51.80;14.30;102797.00;;;;5069508;28;20051;-71
2022/01/22 09:39:18;;;;;;;0.40;0.30;;;15.20;51.80;14.30;102788.00;;;;5068173;28;20094;-72
2022/01/22 09:42:04;;;;;;;0.77;0.40;;;15.20;51.80;14.30;102794.00;;;;5045511;28;20054;-72
2022/01/22 09:44:50;;;;;;;0.63;0.30;;;15.20;51.80;14.30;102795.00;;;;5065349;28;20036;-72
2022/01/22 09:47:36;;;;;;;0.30;0.28;;;15.20;51.80;14.30;102799.00;;;;5056088;28;20036;-72
2022/01/22 09:50:23;;;;;;;0.70;0.40;;;15.30;51.80;14.30;102804.00;;;;5055128;28;20070;-72
2022/01/22 09:53:09;;;;;;;0.68;0.50;;;15.30;51.80;14.30;102800.00;;;;5072905;28;20082;-72
2022/01/22 09:55:55;;;;;;;0.82;0.40;;;15.20;51.80;14.30;102806.00;;;;5064231;28;20409;-72
2022/01/22 09:58:41;;;;;;;0.60;0.52;;;15.30;51.80;14.30;102814.00;;;;5070000;28;20045;-72
2022/01/22 10:01:35;;;;;;;1.08;0.35;;;15.30;51.80;14.30;102819.00;;;;5053410;28;20036;-72
2022/01/22 10:04:38;;;;;;;1.00;0.63;;;15.30;51.80;14.30;102821.00;;;;5066641;28;20504;-72
2022/01/22 10:07:24;;;;;;;0.30;0.30;;;15.30;51.80;14.30;102822.00;;;;5068823;28;20047;-72
2022/01/22 10:10:10;;;;;;;0.55;0.30;;;15.30;51.70;14.30;102827.00;;;;5067058;28;20052;-72
2022/01/22 10:12:57;;;;;;;0.40;0.30;;;15.30;51.80;14.30;102821.00;;;;5070896;28;20470;-72
2022/01/22 10:15:43;;;;;;;0.50;0.50;;;15.30;51.80;14.30;102826.00;;;;5064157;28;20040;-73
2022/01/22 10:18:29;;;;;;;0.55;0.30;;;15.30;51.80;14.30;102833.00;;;;5067697;28;20161;-72
2022/01/22 10:21:15;;;;;;;0.30;0.30;;;15.30;51.80;14.30;102821.00;;;;5073266;28;20512;-76
2022/01/22 10:24:29;;;;;;;0.45;0.40;;;15.20;51.80;14.30;102823.00;;;;5044048;28;20045;-71
2022/01/22 10:27:39;;;;;;;0.25;0.25;;;15.30;51.90;14.30;102814.00;;;;5061836;28;20040;-71
2022/01/22 10:30:34;;;;;;;1.10;0.40;;;15.30;51.90;14.30;102820.00;;;;5068613;28;20044;-69
2022/01/22 10:33:31;;;;;;;0.55;0.40;;;15.30;51.90;14.30;102817.00;;;;5051182;28;20295;-87
2022/01/22 10:36:21;;;;;;;0.63;0.20;;;15.20;51.80;14.30;102819.00;;;;5044491;28;20173;-72
2022/01/22 10:39:25;;;;;;;0.35;0.30;;;15.30;51.90;14.30;102819.00;;;;5066899;28;20385;-71
2022/01/22 10:42:24;;;;;;;0.60;0.40;;;15.30;52.00;14.30;102834.00;;;;5051328;28;20045;-70
2022/01/22 10:45:23;;;;;;;0.30;0.30;;;15.30;52.70;14.30;102830.00;;;;5069276;28;20067;-70
2022/01/22 10:48:22;;;;;;;0.32;0.30;;;15.30;51.90;14.30;102830.00;;;;5051233;28;20049;-70
2022/01/22 10:51:16;;;;;;;0.28;0.22;;;15.30;52.00;14.30;102829.00;;;;5062423;28;20520;-70
2022/01/22 10:54:03;;;;;;;0.20;0.20;;;15.30;52.60;14.30;102832.00;;;;5060165;28;20045;-70
2022/01/22 10:56:49;;;;;;;0.30;0.30;;;15.30;51.90;14.30;102823.00;;;;5065444;28;20042;-70
2022/01/22 10:59:35;;;;;;;0.35;0.28;;;15.30;51.90;14.30;102830.00;;;;5054432;28;20391;-70
2022/01/22 11:02:36;;;;;;;0.10;0.10;;;15.30;51.90;14.30;102822.00;;;;5060911;28;20109;-69
2022/01/22 11:05:37;;;;;;;1.27;0.20;;;15.30;52.00;14.30;102828.00;;;;5053253;28;20393;-70
2022/01/22 11:08:23;;;;;;;0.30;0.30;;;15.20;52.00;14.30;102838.00;;;;5051665;28;20442;-69
2022/01/22 11:11:10;;;;;;;0.20;0.20;;;15.30;51.90;14.30;102820.00;;;;5058908;28;20106;-70
2022/01/22 11:13:56;;;;;;;0.20;0.20;;;15.30;51.90;14.30;102836.00;;;;5068577;28;20066;-71
2022/01/22 11:16:44;;;;;;;0.30;0.30;;;15.30;51.90;14.30;102823.00;;;;5068729;28;20131;-70
2022/01/22 11:19:32;;;;;;;0.70;0.20;;;15.30;52.00;14.30;102832.00;;;;5060948;28;20069;-70
2022/01/22 11:22:18;;;;;;;;;;;15.30;52.00;14.30;102821.00;;;;5067300;28;20047;-77
2022/01/22 11:25:07;;;;;;;0.52;0.30;;;15.30;51.80;14.30;102828.00;;;;5045346;28;19924;-71
2022/01/22 11:27:53;;;;;;;0.20;0.20;;;15.30;51.80;14.30;102828.00;;;;5065460;28;20044;-73
2022/01/22 11:30:39;;;;;;;0.85;0.20;;;15.30;51.90;14.30;102830.00;;;;5049920;28;20032;-72
2022/01/22 11:33:25;;;;;;;0.85;0.40;;;15.30;51.90;14.30;102824.00;;;;5043176;28;20066;-71
2022/01/22 11:36:28;;;;;;;0.95;0.20;;;15.30;51.90;14.30;102830.00;;;;5045503;28;20060;-71
2022/01/22 11:39:23;;;;;;;0.17;0.17;;;15.30;52.00;14.30;102828.00;;;;5049832;28;20048;-72
2022/01/22 11:42:09;;;;;;;0.30;0.20;;;15.30;52.00;14.30;102829.00;;;;5040027;28;20500;-71
2022/01/22 11:45:02;;;;;;;0.22;0.22;;;15.30;52.00;14.30;102815.00;;;;5065374;28;20037;-71
2022/01/22 11:48:26;;;;;;;0.47;0.32;;;15.30;52.00;14.30;102817.00;;;;5067123;28;20040;-71
2022/01/22 11:51:24;;;;;;;0.20;0.20;;;15.30;52.00;14.30;102825.00;;;;5063448;28;20496;-73
2022/01/22 11:54:10;;;;;;;0.20;0.20;;;15.50;52.10;14.30;102824.00;;;;5062757;28;20078;-72
2022/01/22 11:56:56;;;;;;;0.60;0.40;;;15.30;52.00;14.30;102818.00;;;;5061770;28;20029;-72
2022/01/22 11:59:43;;;;;;;1.10;0.30;;;15.30;51.90;14.30;102828.00;;;;5052188;28;20041;-72
2022/01/22 12:02:29;;;;;;;0.30;0.30;;;15.30;52.00;14.30;102829.00;;;;5051151;28;20405;-71
2022/01/22 12:05:15;;;;;;;0.30;0.30;;;15.30;51.90;14.40;102841.00;;;;5059640;28;20036;-71
2022/01/22 12:08:02;;;;;;;0.82;0.45;;;15.40;52.00;14.40;102838.00;;;;5056062;28;20490;-71
2022/01/22 12:16:58;;;;;;;1.15;0.30;;;15.40;51.90;14.40;102842.00;;;;5062877;28;20534;-74
2022/01/22 12:20:05;;;;;;;0.60;0.40;;;15.40;51.90;14.40;102835.00;;;;5065692;28;20032;-74
2022/01/22 12:22:52;;;;;;;0.35;0.28;;;15.40;51.90;14.40;102834.00;;;;5056641;28;20052;-71
2022/01/22 12:25:38;;;;;;;0.32;0.32;;;15.40;51.90;14.40;102832.00;;;;5062966;28;20070;-72
2022/01/22 12:28:35;;;;;;;0.38;0.30;;;15.30;51.90;14.40;102836.00;;;;5069295;28;20120;-72
2022/01/22 12:31:23;;;;;;;0.25;0.25;;;15.40;52.00;14.40;102838.00;;;;5044263;28;20044;-72
2022/01/22 12:34:09;;;;;;;0.55;0.30;;;15.40;52.00;14.40;102844.00;;;;5056298;28;20040;-70
2022/01/22 12:37:15;;;;;;;0.35;0.30;;;15.40;52.00;14.40;102840.00;;;;5068189;28;20048;-70
2022/01/22 12:40:06;;;;;;;0.75;0.43;;;15.40;52.00;14.40;102845.00;;;;5052491;28;20072;-70
2022/01/22 12:43:02;;;;;;;0.30;0.22;;;15.40;52.00;14.40;102839.00;;;;5062477;28;20493;-70
2022/01/22 12:45:58;;;;;;;0.30;0.20;;;15.40;52.00;14.40;102838.00;;;;5038252;28;20124;-70
2022/01/22 12:48:44;;;;;;;0.98;0.40;;;15.40;52.00;14.40;102837.00;;;;5053588;28;20334;-70
2022/01/22 12:51:31;;;;;;;0.30;0.30;;;15.40;52.00;14.40;102844.00;;;;5025598;28;20540;-70
2022/01/22 12:54:28;;;;;;;1.52;0.55;;;15.40;52.00;14.40;102836.00;;;;5052009;28;20490;-70
2022/01/22 12:57:16;;;;;;;0.30;0.30;;;15.40;52.00;14.40;102834.00;;;;5066214;28;20253;-70
2022/01/22 13:00:10;;;;;;;0.43;0.20;;;15.40;52.00;14.40;102836.00;;;;5035241;28;20040;-70
2022/01/22 13:02:57;;;;;;;0.43;0.28;;;15.40;52.00;14.40;102837.00;;;;5067628;28;20113;-70
2022/01/22 13:05:46;;;;;;;0.80;0.20;;;15.40;52.00;14.40;102834.00;;;;5067992;28;20052;-70
2022/01/22 13:08:33;;;;;;;0.20;0.20;;;15.40;52.00;14.40;102830.00;;;;5063788;28;20094;-70
2022/01/22 13:11:21;;;;;;;0.50;0.30;;;15.40;52.00;14.40;102838.00;;;;5049086;28;20223;-70
2022/01/22 13:14:07;;;;;;;1.17;0.35;;;15.40;52.00;14.40;102838.00;;;;5053510;28;20044;-70
2022/01/22 13:16:55;;;;;;;0.88;0.60;;;15.40;52.70;14.40;102835.00;;;;5053451;28;20489;-70
2022/01/22 13:19:41;;;;;;;0.30;0.20;;;15.40;52.10;14.40;102842.00;;;;5064624;28;20113;-70
2022/01/22 13:22:37;;;;;;;1.23;0.28;;;15.40;52.10;14.40;102831.00;;;;5070967;28;20459;-70
2022/01/22 13:25:23;;;;;;;0.38;0.30;;;15.40;52.10;14.40;102840.00;;;;5044160;28;20188;-70
2022/01/22 13:28:12;;;;;;;0.73;0.40;;;15.40;52.10;14.40;102842.00;;;;5054322;28;20067;-70
2022/01/22 13:31:03;;;;;;;0.75;0.30;;;15.40;52.10;14.40;102842.00;;;;5049826;28;20123;-70
2022/01/22 13:37:05;;;;;;;0.65;0.30;;;15.40;52.10;14.40;102840.00;;;;5068758;28;20398;-70
2022/01/22 13:40:10;;;;;;;0.55;0.47;;;15.40;52.10;14.40;102834.00;;;;5070543;28;20289;-70
2022/01/22 13:49:13;;;;;;;0.90;0.30;;;15.40;52.00;14.40;102839.00;;;;5046695;28;20465;-70
2022/01/22 13:52:15;;;;;;;1.23;0.30;;;15.40;52.00;14.40;102831.00;;;;5048715;28;20070;-70
2022/01/22 13:55:01;;;;;;;1.67;0.60;;;15.40;52.10;14.40;102836.00;;;;5039130;28;20051;-70
2022/01/22 13:57:47;;;;;;;0.77;0.32;;;15.40;52.00;14.40;102835.00;;;;5065601;28;20044;-69
2022/01/22 14:00:34;;;;;;;0.95;0.40;;;15.40;52.10;14.40;102833.00;;;;5063696;28;20044;-70
2022/01/22 14:03:33;;;;;;;0.80;0.40;;;15.40;52.10;14.40;102834.00;;;;5069740;28;20059;-70
2022/01/22 14:06:19;;;;;;;0.80;0.50;;;15.40;52.10;14.50;102843.00;;;;5062480;28;20323;-70
2022/01/22 14:09:19;;;;;;;1.77;0.57;;;15.50;52.10;14.50;102844.00;;;;5065910;28;20040;-70